createdAt,value
2018-11-28T00:00:45.057Z,25.27
2018-11-28T00:03:12.503Z,23.00
2018-11-28T00:05:39.967Z,26.23
2018-11-28T00:08:07.442Z,21.30
2018-11-28T00:10:34.887Z,23.23
2018-11-28T00:13:02.362Z,24.67
2018-11-28T00:15:29.886Z,24.00
2018-11-28T00:17:57.334Z,23.37
2018-11-28T00:20:24.788Z,24.93
2018-11-28T00:22:52.213Z,24.97
2018-11-28T00:25:19.662Z,26.50
2018-11-28T00:27:47.155Z,26.10
2018-11-28T00:30:19.359Z,23.67
2018-11-28T00:32:46.796Z,24.40
2018-11-28T00:35:15.295Z,25.77
2018-11-28T00:37:42.739Z,27.17
2018-11-28T00:40:13.010Z,25.40
2018-11-28T00:42:40.746Z,23.20
2018-11-28T00:45:13.132Z,24.63
2018-11-28T00:47:40.563Z,23.20
2018-11-28T00:50:12.043Z,25.50
2018-11-28T00:52:39.486Z,25.97
2018-11-28T00:55:09.991Z,25.33
2018-11-28T00:57:37.435Z,21.77
2018-11-28T01:00:08.842Z,24.50
2018-11-28T01:02:36.597Z,22.27
2018-11-28T01:05:04.771Z,24.60
2018-11-28T01:07:32.233Z,24.73
2018-11-28T01:09:59.671Z,27.00
2018-11-28T01:12:27.127Z,22.43
2018-11-28T01:14:54.578Z,25.47
2018-11-28T01:17:22.071Z,25.13
2018-11-28T01:19:49.538Z,26.23
2018-11-28T01:22:16.975Z,22.00
2018-11-28T01:24:44.414Z,24.90
2018-11-28T01:27:11.890Z,23.47
2018-11-28T01:29:39.343Z,28.40
2018-11-28T01:32:06.779Z,26.80
2018-11-28T01:34:34.243Z,25.00
2018-11-28T01:37:01.715Z,26.70
2018-11-28T01:39:29.150Z,28.70
2018-11-28T01:41:56.591Z,23.60
2018-11-28T01:44:24.050Z,23.10
2018-11-28T01:46:51.514Z,24.07
2018-11-28T01:49:19.023Z,30.90
2018-11-28T01:51:46.450Z,25.63
2018-11-28T01:54:13.907Z,24.70
2018-11-28T01:56:41.354Z,23.27
2018-11-28T01:59:08.810Z,24.53
2018-11-28T02:01:36.261Z,30.00
2018-11-28T02:04:03.724Z,25.53
2018-11-28T02:06:31.236Z,27.70
2018-11-28T02:08:58.678Z,27.90
2018-11-28T02:11:26.129Z,27.63
2018-11-28T02:13:53.572Z,26.63
2018-11-28T02:16:20.999Z,24.37
2018-11-28T02:18:48.438Z,26.17
2018-11-28T02:21:15.888Z,22.00
2018-11-28T02:23:43.433Z,28.27
2018-11-28T02:26:10.925Z,24.67
2018-11-28T02:28:38.327Z,21.57
2018-11-28T02:31:05.805Z,22.53
2018-11-28T02:33:35.230Z,30.67
2018-11-28T02:36:02.563Z,25.17
2018-11-28T02:38:29.911Z,22.70
2018-11-28T02:40:57.247Z,31.30
2018-11-28T02:43:24.629Z,25.40
2018-11-28T02:46:03.439Z,30.70
2018-11-28T02:48:30.763Z,27.03
2018-11-28T02:50:58.134Z,26.50
2018-11-28T02:53:25.447Z,27.10
2018-11-28T02:55:52.791Z,22.53
2018-11-28T02:58:20.158Z,29.03
2018-11-28T03:00:47.529Z,26.77
2018-11-28T03:03:14.905Z,29.40
2018-11-28T03:05:42.274Z,26.73
2018-11-28T03:08:09.655Z,23.30
2018-11-28T03:10:37.027Z,27.57
2018-11-28T03:13:04.768Z,26.97
2018-11-28T03:15:32.113Z,26.10
2018-11-28T03:17:59.469Z,28.70
2018-11-28T03:20:26.848Z,32.40
2018-11-28T03:22:54.194Z,25.53
2018-11-28T03:25:21.537Z,26.97
2018-11-28T03:27:48.924Z,25.00
2018-11-28T03:30:16.274Z,25.97
2018-11-28T03:32:43.645Z,24.70
2018-11-28T03:35:12.164Z,30.77
2018-11-28T03:37:39.506Z,31.23
2018-11-28T03:40:06.981Z,28.93
2018-11-28T03:42:34.356Z,28.10
2018-11-28T03:45:01.777Z,31.10
2018-11-28T03:47:29.145Z,29.43
2018-11-28T03:49:56.497Z,28.63
2018-11-28T03:52:23.875Z,26.77
2018-11-28T03:54:51.260Z,30.43
2018-11-28T03:57:18.778Z,24.90
2018-11-28T03:59:46.115Z,33.00
2018-11-28T04:02:13.475Z,31.60
2018-11-28T04:04:40.841Z,31.30
2018-11-28T04:07:08.230Z,30.33
2018-11-28T04:09:35.571Z,26.67
2018-11-28T04:12:02.923Z,29.10
2018-11-28T04:14:30.308Z,31.97
2018-11-28T04:16:57.705Z,27.90
2018-11-28T04:19:25.113Z,29.73
2018-11-28T04:21:52.494Z,32.70
2018-11-28T04:24:19.866Z,24.00
2018-11-28T04:26:47.263Z,31.67
2018-11-28T04:29:14.645Z,28.90
2018-11-28T04:31:42.018Z,28.03
2018-11-28T04:34:09.385Z,27.80
2018-11-28T04:36:36.766Z,30.70
2018-11-28T04:39:06.809Z,26.60
2018-11-28T04:41:34.189Z,28.67
2018-11-28T04:44:01.609Z,27.20
2018-11-28T04:46:28.894Z,28.20
2018-11-28T04:48:56.253Z,28.60
2018-11-28T04:51:23.613Z,31.70
2018-11-28T04:53:50.994Z,33.37
2018-11-28T04:56:18.402Z,26.40
2018-11-28T04:58:45.769Z,26.67
2018-11-28T05:01:13.130Z,28.67
2018-11-28T05:03:40.670Z,29.33
2018-11-28T05:06:08.037Z,32.07
2018-11-28T05:08:35.429Z,30.50
2018-11-28T05:11:02.793Z,28.87
2018-11-28T05:13:30.165Z,26.37
2018-11-28T05:15:57.537Z,25.67
2018-11-28T05:18:24.920Z,36.57
2018-11-28T05:20:52.277Z,30.80
2018-11-28T05:23:19.725Z,25.47
2018-11-28T05:25:47.093Z,30.50
2018-11-28T05:28:14.486Z,28.57
2018-11-28T05:30:41.885Z,27.27
2018-11-28T05:33:09.256Z,28.93
2018-11-28T05:35:37.947Z,27.37
2018-11-28T05:38:10.513Z,27.50
2018-11-28T05:40:37.884Z,27.20
2018-11-28T05:43:05.434Z,29.40
2018-11-28T05:45:32.817Z,28.03
2018-11-28T05:48:00.160Z,25.90
2018-11-28T05:50:27.524Z,28.57
2018-11-28T05:52:54.914Z,30.20
2018-11-28T05:55:22.498Z,29.43
2018-11-28T05:57:49.903Z,32.77
2018-11-28T06:00:25.512Z,29.50
2018-11-28T06:02:52.913Z,26.70
2018-11-28T06:05:20.269Z,30.20
2018-11-28T06:07:47.642Z,27.20
2018-11-28T06:10:15.003Z,28.10
2018-11-28T06:12:42.356Z,27.77
2018-11-28T06:15:10.902Z,29.50
2018-11-28T06:17:38.252Z,30.30
2018-11-28T06:20:11.076Z,25.23
2018-11-28T06:22:38.582Z,34.00
2018-11-28T06:25:15.557Z,29.30
2018-11-28T06:27:35.065Z,32.70
2018-11-28T06:30:02.617Z,30.00
2018-11-28T06:32:29.952Z,33.70
2018-11-28T06:34:57.380Z,35.10
2018-11-28T06:37:24.717Z,30.43
2018-11-28T06:39:52.120Z,35.53
2018-11-28T06:42:19.468Z,32.17
2018-11-28T06:44:46.825Z,27.77
2018-11-28T06:47:14.164Z,30.67
2018-11-28T06:49:41.625Z,32.30
2018-11-28T06:52:08.981Z,29.13
2018-11-28T06:54:37.159Z,30.00
2018-11-28T06:57:04.557Z,32.83
2018-11-28T06:59:31.941Z,24.13
2018-11-28T07:01:59.313Z,30.90
2018-11-28T07:04:26.774Z,29.60
2018-11-28T07:06:54.149Z,30.00
2018-11-28T07:09:21.513Z,25.27
2018-11-28T07:11:48.851Z,27.90
2018-11-28T07:14:16.184Z,27.90
2018-11-28T07:16:43.732Z,21.93
2018-11-28T07:19:11.250Z,30.70
2018-11-28T07:21:38.669Z,28.43
2018-11-28T07:24:06.680Z,26.53
2018-11-28T07:26:34.113Z,25.63
2018-11-28T07:29:01.477Z,30.83
2018-11-28T07:31:28.934Z,30.20
2018-11-28T07:33:56.284Z,28.67
2018-11-28T07:36:23.667Z,27.17
2018-11-28T07:38:51.005Z,28.57
2018-11-28T07:41:18.425Z,28.70
2018-11-28T07:43:45.796Z,28.00
2018-11-28T07:46:13.164Z,27.83
2018-11-28T07:48:40.498Z,28.77
2018-11-28T07:51:07.857Z,30.30
2018-11-28T07:53:35.483Z,26.57
2018-11-28T07:56:02.845Z,28.30
2018-11-28T07:58:30.188Z,29.33
2018-11-28T08:00:57.550Z,28.53
2018-11-28T08:03:24.919Z,28.07
2018-11-28T08:05:52.301Z,27.83
2018-11-28T08:08:19.714Z,33.37
2018-11-28T08:10:47.146Z,31.30
2018-11-28T08:13:14.594Z,26.57
2018-11-28T08:15:42.080Z,27.80
2018-11-28T08:18:09.571Z,32.93
2018-11-28T08:20:36.961Z,28.13
2018-11-28T08:23:04.568Z,31.10
2018-11-28T08:25:32.089Z,33.80
2018-11-28T08:27:59.546Z,24.83
2018-11-28T08:30:27.042Z,23.90
2018-11-28T08:32:55.338Z,25.80
2018-11-28T08:35:22.763Z,27.33
2018-11-28T08:37:50.132Z,31.37
2018-11-28T08:40:20.604Z,25.23
2018-11-28T08:42:48.061Z,27.03
2018-11-28T08:45:16.435Z,26.73
2018-11-28T08:47:44.811Z,27.13
2018-11-28T08:50:16.345Z,26.20
2018-11-28T08:52:43.742Z,28.13
2018-11-28T08:55:11.995Z,31.60
2018-11-28T08:57:39.353Z,28.03
2018-11-28T09:00:11.433Z,27.33
2018-11-28T09:02:38.782Z,22.17
2018-11-28T09:05:06.847Z,28.80
2018-11-28T09:07:34.222Z,27.73
2018-11-28T09:10:01.590Z,31.37
2018-11-28T09:12:28.941Z,29.83
2018-11-28T09:14:56.305Z,27.10
2018-11-28T09:17:23.698Z,28.30
2018-11-28T09:19:51.052Z,27.30
2018-11-28T09:22:18.496Z,26.23
2018-11-28T09:24:45.859Z,30.13
2018-11-28T09:27:13.231Z,28.20
2018-11-28T09:29:40.577Z,29.30
2018-11-28T09:32:08.007Z,30.13
2018-11-28T09:34:35.300Z,30.07
2018-11-28T09:37:02.748Z,26.90
2018-11-28T09:39:30.108Z,24.57
2018-11-28T09:41:57.464Z,26.10
2018-11-28T09:44:24.828Z,28.97
2018-11-28T09:46:52.197Z,30.50
2018-11-28T09:49:19.562Z,29.30
2018-11-28T09:51:46.950Z,26.67
2018-11-28T09:54:14.340Z,26.90
2018-11-28T09:56:41.702Z,26.73
2018-11-28T09:59:09.069Z,28.10
2018-11-28T10:01:36.405Z,29.30
2018-11-28T10:04:04.021Z,30.27
2018-11-28T10:06:31.362Z,28.07
2018-11-28T10:08:58.736Z,33.10
2018-11-28T10:11:26.089Z,27.63
2018-11-28T10:13:53.448Z,25.50
2018-11-28T10:16:20.825Z,30.30
2018-11-28T10:18:48.195Z,28.33
2018-11-28T10:21:15.637Z,24.90
2018-11-28T10:23:43.045Z,29.97
2018-11-28T10:26:10.423Z,26.00
2018-11-28T10:28:37.807Z,26.10
2018-11-28T10:31:05.506Z,27.53
2018-11-28T10:33:32.886Z,31.10
2018-11-28T10:36:00.263Z,26.17
2018-11-28T10:38:27.619Z,27.77
2018-11-28T10:40:55.016Z,28.83
2018-11-28T10:43:22.408Z,27.60
2018-11-28T10:45:49.765Z,26.30
2018-11-28T10:48:17.151Z,28.00
2018-11-28T10:50:44.517Z,33.33
2018-11-28T10:53:11.870Z,28.37
2018-11-28T10:55:39.236Z,30.40
2018-11-28T10:58:07.176Z,28.80
2018-11-28T11:00:34.586Z,26.47
2018-11-28T11:03:02.114Z,29.93
2018-11-28T11:05:29.504Z,28.60
2018-11-28T11:07:56.905Z,25.90
2018-11-28T11:10:24.350Z,31.17
2018-11-28T11:12:51.744Z,25.30
2018-11-28T11:15:19.173Z,31.27
2018-11-28T11:17:46.556Z,30.07
2018-11-28T11:20:14.161Z,28.63
2018-11-28T11:22:41.316Z,31.27
2018-11-28T11:25:08.674Z,30.47
2018-11-28T11:27:36.047Z,29.87
2018-11-28T11:30:03.948Z,25.73
2018-11-28T11:32:31.348Z,29.37
2018-11-28T11:34:58.703Z,25.80
2018-11-28T11:37:26.052Z,27.23
2018-11-28T11:39:53.429Z,30.23
2018-11-28T11:42:20.789Z,27.07
2018-11-28T11:44:48.158Z,27.30
2018-11-28T11:47:15.522Z,29.50
2018-11-28T11:49:42.865Z,28.00
2018-11-28T11:52:11.429Z,28.47
2018-11-28T11:54:38.808Z,27.83
2018-11-28T11:57:06.178Z,30.30
2018-11-28T11:59:33.562Z,26.97
2018-11-28T12:02:00.977Z,31.10
2018-11-28T12:04:28.334Z,27.60
2018-11-28T12:06:55.852Z,29.13
2018-11-28T12:09:23.205Z,28.47
2018-11-28T12:11:50.565Z,31.77
2018-11-28T12:14:17.939Z,31.73
2018-11-28T12:16:45.414Z,25.97
2018-11-28T12:19:12.785Z,29.93
2018-11-28T12:21:40.262Z,21.87
2018-11-28T12:24:07.637Z,25.40
2018-11-28T12:26:35.026Z,26.90
2018-11-28T12:29:02.394Z,26.80
2018-11-28T12:31:29.767Z,28.10
2018-11-28T12:33:57.126Z,27.47
2018-11-28T12:36:24.593Z,25.90
2018-11-28T12:38:52.002Z,26.50
2018-11-28T12:41:19.651Z,26.80
2018-11-28T12:43:47.044Z,25.53
2018-11-28T12:46:14.428Z,26.47
2018-11-28T12:48:42.061Z,24.63
2018-11-28T12:51:09.463Z,23.50
2018-11-28T12:53:36.846Z,26.27
2018-11-28T12:56:04.849Z,30.67
2018-11-28T12:58:32.210Z,22.73
2018-11-28T13:00:59.761Z,23.47
2018-11-28T13:03:27.268Z,27.23
2018-11-28T13:08:17.601Z,24.50
2018-11-28T13:10:45.038Z,24.20
2018-11-28T13:13:12.418Z,21.00
2018-11-28T13:15:39.849Z,24.13
2018-11-28T13:18:09.145Z,25.50
2018-11-28T13:20:37.123Z,26.07
2018-11-28T13:23:04.842Z,25.00
2018-11-28T13:25:34.015Z,23.60
2018-11-28T13:28:01.433Z,23.87
2018-11-28T13:30:28.822Z,23.10
2018-11-28T13:32:56.234Z,24.37
2018-11-28T13:35:24.638Z,23.17
2018-11-28T13:37:53.341Z,23.50
2018-11-28T13:40:20.793Z,26.37
2018-11-28T13:42:48.287Z,23.00
2018-11-28T13:45:17.842Z,23.63
2018-11-28T13:47:46.557Z,24.67
2018-11-28T13:50:14.001Z,22.80
2018-11-28T13:52:41.477Z,22.47
2018-11-28T13:57:40.872Z,22.10
2018-11-28T14:00:08.993Z,21.73
2018-11-28T14:02:36.691Z,22.23
2018-11-28T14:05:06.874Z,26.00
2018-11-28T14:07:34.253Z,25.47
2018-11-28T14:10:01.602Z,22.40
2018-11-28T14:12:28.973Z,21.90
2018-11-28T14:14:56.324Z,20.47
2018-11-28T14:17:23.713Z,20.40
2018-11-28T14:19:51.124Z,22.97
2018-11-28T14:22:18.480Z,23.07
2018-11-28T14:24:45.860Z,25.23
2018-11-28T14:27:13.240Z,24.43
2018-11-28T14:29:40.638Z,24.77
2018-11-28T14:32:08.040Z,22.80
2018-11-28T14:34:35.435Z,22.13
2018-11-28T14:37:02.792Z,24.50
2018-11-28T14:39:30.149Z,21.77
2018-11-28T14:41:57.521Z,21.23
2018-11-28T14:44:24.901Z,19.97
2018-11-28T14:46:52.252Z,21.20
2018-11-28T14:49:19.613Z,24.33
2018-11-28T14:51:46.973Z,20.53
2018-11-28T14:54:14.320Z,20.70
2018-11-28T14:56:41.723Z,20.90
2018-11-28T14:59:09.093Z,21.70
2018-11-28T15:01:36.501Z,18.63
2018-11-28T15:04:03.867Z,23.93
2018-11-28T15:07:02.355Z,20.30
2018-11-28T15:09:30.788Z,23.13
2018-11-28T15:11:58.309Z,20.47
2018-11-28T15:14:25.709Z,18.43
2018-11-28T15:16:53.083Z,23.87
2018-11-28T15:19:20.494Z,20.70
2018-11-28T15:21:47.861Z,22.13
2018-11-28T15:24:15.259Z,23.87
2018-11-28T15:26:42.654Z,21.60
2018-11-28T15:29:10.071Z,21.30
2018-11-28T15:31:37.465Z,18.57
2018-11-28T15:34:05.724Z,21.40
2018-11-28T15:36:33.075Z,17.90
2018-11-28T15:39:00.480Z,19.50
2018-11-28T15:41:27.883Z,19.60
2018-11-28T15:43:55.264Z,22.80
2018-11-28T15:46:22.657Z,25.83
2018-11-28T15:48:50.089Z,22.73
2018-11-28T15:51:17.463Z,19.27
2018-11-28T15:53:44.842Z,20.33
2018-11-28T15:56:12.249Z,22.60
2018-11-28T15:58:39.627Z,20.80
2018-11-28T16:01:07.040Z,19.93
2018-11-28T16:03:34.447Z,21.80
2018-11-28T16:06:01.838Z,19.00
2018-11-28T16:08:29.238Z,20.63
2018-11-28T16:10:57.250Z,22.53
2018-11-28T16:13:24.647Z,20.57
2018-11-28T16:15:54.968Z,22.40
2018-11-28T16:18:22.372Z,21.83
2018-11-28T16:20:49.769Z,21.00
2018-11-28T16:23:17.161Z,18.43
2018-11-28T16:25:44.532Z,18.80
2018-11-28T16:28:12.574Z,19.20
2018-11-28T16:30:39.308Z,18.53
2018-11-28T16:33:06.999Z,21.23
2018-11-28T16:35:35.163Z,18.13
2018-11-28T16:38:02.576Z,18.70
2018-11-28T16:40:30.033Z,19.73
2018-11-28T16:42:57.388Z,18.90
2018-11-28T16:45:24.785Z,20.90
2018-11-28T16:47:52.224Z,22.17
2018-11-28T16:50:19.604Z,20.53
2018-11-28T16:52:47.054Z,20.33
2018-11-28T16:55:15.344Z,20.17
2018-11-28T16:57:44.157Z,20.70
2018-11-28T17:00:14.671Z,23.00
2018-11-28T17:02:42.067Z,19.47
2018-11-28T17:05:12.868Z,22.40
2018-11-28T17:07:40.516Z,22.00
2018-11-28T17:10:11.289Z,20.37
2018-11-28T17:12:38.640Z,21.37
2018-11-28T17:15:08.422Z,22.83
2018-11-28T17:17:35.801Z,22.20
2018-11-28T17:20:05.396Z,20.70
2018-11-28T17:22:32.765Z,21.87
2018-11-28T17:25:00.183Z,21.53
2018-11-28T17:27:27.628Z,23.20
2018-11-28T17:29:55.118Z,20.50
2018-11-28T17:32:22.500Z,21.93
2018-11-28T17:34:49.862Z,22.73
2018-11-28T17:37:17.299Z,22.17
2018-11-28T17:39:44.691Z,24.43
2018-11-28T17:42:12.142Z,21.40
2018-11-28T17:44:39.506Z,20.33
2018-11-28T17:47:06.889Z,24.30
2018-11-28T17:49:34.258Z,21.00
2018-11-28T17:52:01.676Z,19.70
2018-11-28T17:54:29.057Z,20.47
2018-11-28T17:56:56.427Z,18.80
2018-11-28T17:59:23.807Z,19.83
2018-11-28T18:01:51.224Z,17.70
2018-11-28T18:04:18.596Z,19.00
2018-11-28T18:06:45.983Z,18.77
2018-11-28T18:09:13.365Z,17.57
2018-11-28T18:11:40.733Z,17.93
2018-11-28T18:14:08.141Z,17.33
2018-11-28T18:16:35.505Z,16.67
2018-11-28T18:19:02.915Z,17.30
2018-11-28T18:21:30.263Z,18.50
2018-11-28T18:23:57.636Z,17.40
2018-11-28T18:26:26.254Z,18.77
2018-11-28T18:28:53.721Z,18.37
2018-11-28T18:31:21.974Z,17.90
2018-11-28T18:33:48.660Z,20.07
2018-11-28T18:36:16.066Z,19.73
2018-11-28T18:38:43.426Z,17.47
2018-11-28T18:41:10.806Z,16.83
2018-11-28T18:43:38.173Z,19.10
2018-11-28T18:46:06.348Z,17.37
2018-11-28T18:48:33.745Z,17.17
2018-11-28T18:51:01.111Z,21.00
2018-11-28T18:53:28.488Z,20.30
2018-11-28T18:55:55.855Z,18.27
2018-11-28T18:58:23.225Z,18.10
2018-11-28T19:00:50.592Z,18.10
2018-11-28T19:03:17.937Z,18.67
2018-11-28T19:05:45.331Z,17.40
2018-11-28T19:08:12.750Z,19.00
2018-11-28T19:10:40.186Z,18.57
2018-11-28T19:13:07.559Z,16.57
2018-11-28T19:15:34.940Z,16.60
2018-11-28T19:18:02.326Z,16.93
2018-11-28T19:20:29.687Z,17.67
2018-11-28T19:22:57.181Z,18.33
2018-11-28T19:25:26.609Z,23.20
2018-11-28T19:27:53.996Z,22.00
2018-11-28T19:30:40.316Z,18.60
2018-11-28T19:33:10.897Z,21.17
2018-11-28T19:35:38.273Z,21.27
2018-11-28T19:38:08.819Z,18.47
2018-11-28T19:40:48.222Z,17.93
2018-11-28T19:43:15.575Z,19.93
2018-11-28T19:45:42.948Z,20.20
2018-11-28T19:48:10.308Z,20.20
2018-11-28T19:50:37.683Z,20.13
2018-11-28T19:53:06.132Z,18.83
2018-11-28T19:55:33.473Z,17.17
2018-11-28T19:58:00.841Z,18.93
2018-11-28T20:00:28.208Z,19.37
2018-11-28T20:02:55.599Z,19.53
2018-11-28T20:05:22.969Z,19.30
2018-11-28T20:07:50.562Z,17.40
2018-11-28T20:10:20.105Z,17.67
2018-11-28T20:12:47.521Z,18.27
2018-11-28T20:15:16.322Z,20.73
2018-11-28T20:17:43.701Z,16.50
2018-11-28T20:20:12.144Z,17.20
2018-11-28T20:22:39.552Z,17.10
2018-11-28T20:25:08.714Z,23.23
2018-11-28T20:27:36.118Z,19.40
2018-11-28T20:30:06.101Z,19.70
2018-11-28T20:32:33.547Z,19.30
2018-11-28T20:35:03.070Z,17.50
2018-11-28T20:37:28.336Z,16.97
2018-11-28T20:39:55.677Z,18.13
2018-11-28T20:42:23.064Z,17.20
2018-11-28T20:44:50.579Z,22.93
2018-11-28T20:47:17.943Z,20.83
2018-11-28T20:49:45.344Z,18.97
2018-11-28T20:52:12.783Z,18.90
2018-11-28T20:54:40.139Z,19.17
2018-11-28T20:57:07.508Z,17.40
2018-11-28T20:59:38.284Z,18.13
2018-11-28T21:02:02.273Z,24.90
2018-11-28T21:04:29.635Z,21.40
2018-11-28T21:06:57.023Z,20.10
2018-11-28T21:09:24.386Z,20.63
2018-11-28T21:11:51.975Z,21.93
2018-11-28T21:14:19.356Z,20.80
2018-11-28T21:16:46.753Z,18.90
2018-11-28T21:19:14.150Z,17.17
2018-11-28T21:21:41.527Z,20.20
2018-11-28T21:24:08.933Z,20.37
2018-11-28T21:26:36.320Z,19.23
2018-11-28T21:29:03.976Z,18.17
2018-11-28T21:31:31.364Z,16.63
2018-11-28T21:33:58.756Z,17.80
2018-11-28T21:36:26.155Z,20.80
2018-11-28T21:38:53.663Z,20.13
2018-11-28T21:41:21.035Z,21.80
2018-11-28T21:43:48.410Z,18.53
2018-11-28T21:46:15.769Z,20.97
2018-11-28T21:48:43.156Z,18.40
2018-11-28T21:51:10.545Z,21.30
2018-11-28T21:53:37.899Z,17.67
2018-11-28T21:56:05.285Z,20.33
2018-11-28T21:58:32.732Z,17.33
2018-11-28T22:01:00.116Z,18.67
2018-11-28T22:03:27.495Z,16.87
2018-11-28T22:05:55.102Z,18.87
2018-11-28T22:08:22.273Z,20.60
2018-11-28T22:10:49.657Z,19.60
2018-11-28T22:13:17.038Z,21.57
2018-11-28T22:15:44.430Z,19.47
2018-11-28T22:18:12.022Z,18.67
2018-11-28T22:20:39.258Z,21.13
2018-11-28T22:23:06.658Z,20.07
2018-11-28T22:25:34.013Z,18.63
2018-11-28T22:28:01.384Z,20.87
2018-11-28T22:30:28.981Z,20.70
2018-11-28T22:32:56.890Z,19.07
2018-11-28T22:35:24.287Z,18.70
2018-11-28T22:37:51.646Z,18.17
2018-11-28T22:40:22.213Z,17.87
2018-11-28T22:42:49.628Z,19.57
2018-11-28T22:45:19.003Z,18.90
2018-11-28T22:47:46.380Z,22.03
2018-11-28T22:50:13.891Z,17.30
2018-11-28T22:52:41.275Z,19.57
2018-11-28T22:55:10.565Z,20.03
2018-11-28T22:57:37.934Z,20.63
2018-11-28T23:00:09.553Z,22.00
2018-11-28T23:02:55.674Z,20.43
2018-11-28T23:05:43.118Z,19.17
2018-11-28T23:08:11.660Z,24.47
2018-11-28T23:10:39.116Z,25.70
2018-11-28T23:13:07.426Z,21.90
2018-11-28T23:15:34.956Z,30.77
2018-11-28T23:18:02.353Z,26.27
2018-11-28T23:20:29.689Z,25.10
2018-11-28T23:22:57.077Z,21.10
2018-11-28T23:25:24.443Z,26.43
2018-11-28T23:27:51.785Z,20.93
2018-11-28T23:30:20.902Z,23.13
2018-11-28T23:32:49.014Z,22.23
2018-11-28T23:35:16.692Z,22.13
2018-11-28T23:37:45.252Z,22.67
2018-11-28T23:40:20.605Z,25.23
2018-11-28T23:42:48.288Z,21.07
2018-11-28T23:45:16.135Z,21.33
2018-11-28T23:47:43.473Z,25.87
2018-11-28T23:50:15.460Z,28.50
2018-11-28T23:52:43.128Z,28.03
2018-11-28T23:55:17.754Z,26.90
2018-11-28T23:57:45.105Z,27.30
